Inlet Island, Washington
Current Conditions -  °F | °C
As of 1:58 PM on Thursday 23 Oct 2014 (Local Time) from KTCM Reporting Station
Broken Clouds Broken Clouds  
Wind Chill: 57°   Ceiling: 4400
Heat Index: 57°   Visibility: 10mi
Dew Point: 49°   Wind: 13mph
Humidity: 72%   Direction: 200°SSW
Pressure: 29.85"   Gusts: NA
Location:  47.1874°N, 122.164°W
Report Text: KTCM 232058Z AUTO 20011KT 10SM SCT035 BKN044 BKN120 14/09 A2985 RMK AO2 SLP112 60001 T01410092 52010 $
Loading
Personal Weather Stations






























Interactive Weather Map
Tropical Storm Tracking
New forecast layout! Learn more

10-Day Weather Forecast

Advertisements
Track Severe Weather on mobile